createdAt,value
2022-10-15T00:00:11.734Z,100556.31
2022-10-15T00:02:57.848Z,100545.59
2022-10-15T00:05:24.508Z,100549.84
2022-10-15T00:07:50.746Z,100556.16
2022-10-15T00:10:17.276Z,100549.69
2022-10-15T00:12:43.760Z,100544.06
2022-10-15T00:15:11.313Z,100541.00
2022-10-15T00:17:37.918Z,100543.91
2022-10-15T00:20:07.496Z,100540.50
2022-10-15T00:22:34.230Z,100542.56
2022-10-15T00:25:00.683Z,100541.34
2022-10-15T00:27:27.464Z,100552.91
2022-10-15T00:29:54.601Z,100554.59
2022-10-15T00:32:21.389Z,100542.03
2022-10-15T00:34:48.049Z,100532.53
2022-10-15T00:37:17.641Z,100539.66
2022-10-15T00:39:44.309Z,100524.19
2022-10-15T00:42:10.838Z,100523.00
2022-10-15T00:44:37.533Z,100526.22
2022-10-15T00:47:37.549Z,100531.50
2022-10-15T00:50:07.734Z,100519.09
2022-10-15T00:53:05.393Z,100509.75
2022-10-15T00:55:35.775Z,100507.69
2022-10-15T00:58:17.317Z,100508.53
2022-10-15T01:00:44.596Z,100508.41
2022-10-15T01:03:12.078Z,100510.94
2022-10-15T01:05:39.589Z,100508.41
2022-10-15T01:08:10.385Z,100506.66
2022-10-15T01:10:54.541Z,100507.53
2022-10-15T01:13:31.873Z,100505.66
2022-10-15T01:16:16.830Z,100494.97
2022-10-15T01:18:54.509Z,100494.09
2022-10-15T01:21:25.358Z,100488.00
2022-10-15T01:24:14.491Z,100488.66
2022-10-15T01:26:58.661Z,100483.56
2022-10-15T01:29:43.846Z,100479.31
2022-10-15T01:32:19.364Z,100474.56
2022-10-15T01:35:00.487Z,100475.56
2022-10-15T01:37:37.373Z,100465.19
2022-10-15T01:40:14.940Z,100462.66
2022-10-15T01:42:56.966Z,100456.38
2022-10-15T01:45:56.398Z,100463.34
2022-10-15T01:48:42.406Z,100465.72
2022-10-15T01:51:10.444Z,100460.28
2022-10-15T01:53:39.417Z,100452.47
2022-10-15T01:56:12.072Z,100448.56
2022-10-15T01:58:42.686Z,100438.72
2022-10-15T02:01:09.878Z,100446.53
2022-10-15T02:04:17.021Z,100437.19
2022-10-15T02:06:48.653Z,100425.09
2022-10-15T02:09:31.660Z,100424.09
2022-10-15T02:12:17.255Z,100425.25
2022-10-15T02:14:52.515Z,100424.75
2022-10-15T02:17:27.337Z,100417.94
2022-10-15T02:20:05.677Z,100420.66
2022-10-15T02:22:38.872Z,100422.22
2022-10-15T02:25:13.303Z,100417.97
2022-10-15T02:27:41.706Z,100420.69
2022-10-15T02:30:09.237Z,100421.00
2022-10-15T02:32:39.659Z,100416.22
2022-10-15T02:35:07.990Z,100411.16
2022-10-15T02:37:42.690Z,100401.59
2022-10-15T02:40:09.778Z,100401.44
2022-10-15T02:42:36.511Z,100412.31
2022-10-15T02:45:07.424Z,100398.56
2022-10-15T02:47:34.127Z,100401.59
2022-10-15T02:50:03.173Z,100398.53
2022-10-15T02:52:29.435Z,100398.19
2022-10-15T02:54:55.715Z,100393.59
2022-10-15T02:57:22.195Z,100387.97
2022-10-15T02:59:49.576Z,100384.22
2022-10-15T03:02:18.504Z,100382.72
2022-10-15T03:04:46.438Z,100379.28
2022-10-15T03:07:14.025Z,100383.72
2022-10-15T03:09:40.430Z,100374.19
2022-10-15T03:12:07.226Z,100365.50
2022-10-15T03:14:33.651Z,100358.72
2022-10-15T03:17:00.758Z,100355.31
2022-10-15T03:19:27.917Z,100359.88
2022-10-15T03:21:54.334Z,100356.13
2022-10-15T03:24:20.993Z,100358.00
2022-10-15T03:26:47.511Z,100365.84
2022-10-15T03:29:14.222Z,100370.75
2022-10-15T03:31:50.690Z,100364.66
2022-10-15T03:34:17.640Z,100369.41
2022-10-15T03:36:44.696Z,100370.63
2022-10-15T03:39:12.701Z,100359.56
2022-10-15T03:41:39.354Z,100356.66
2022-10-15T03:44:07.666Z,100360.06
2022-10-15T03:46:36.427Z,100354.63
2022-10-15T03:49:02.804Z,100358.38
2022-10-15T03:51:31.648Z,100355.78
2022-10-15T03:54:05.199Z,100350.88
2022-10-15T03:56:37.657Z,100347.97
2022-10-15T03:59:21.715Z,100337.31
2022-10-15T04:01:55.753Z,100340.16
2022-10-15T04:04:22.330Z,100346.09
2022-10-15T04:06:51.200Z,100339.72
2022-10-15T04:09:18.696Z,100346.88
2022-10-15T04:11:45.765Z,100352.44
2022-10-15T04:14:12.882Z,100356.84
2022-10-15T04:16:39.232Z,100345.97
2022-10-15T04:19:13.151Z,100356.63
2022-10-15T04:21:41.202Z,100352.69
2022-10-15T04:24:12.937Z,100351.69
2022-10-15T04:26:40.868Z,100344.53
2022-10-15T04:29:07.544Z,100342.66
2022-10-15T04:31:33.902Z,100337.22
2022-10-15T04:34:01.371Z,100330.56
2022-10-15T04:36:28.410Z,100332.94
2022-10-15T04:39:00.639Z,100340.25
2022-10-15T04:41:34.836Z,100344.00
2022-10-15T04:44:04.566Z,100336.13
2022-10-15T04:46:31.937Z,100330.88
2022-10-15T04:49:03.128Z,100339.34
2022-10-15T04:51:29.476Z,100340.69
2022-10-15T04:54:03.156Z,100338.44
2022-10-15T04:56:30.746Z,100334.88
2022-10-15T04:58:59.545Z,100334.03
2022-10-15T05:01:29.105Z,100327.41
2022-10-15T05:04:03.453Z,100327.53
2022-10-15T05:06:32.354Z,100324.53
2022-10-15T05:09:07.699Z,100330.44
2022-10-15T05:11:37.445Z,100336.75
2022-10-15T05:14:08.514Z,100329.41
2022-10-15T05:16:35.259Z,100335.03
2022-10-15T05:19:06.548Z,100324.81
2022-10-15T05:21:35.123Z,100331.41
2022-10-15T05:24:04.923Z,100337.22
2022-10-15T05:26:50.458Z,100341.94
2022-10-15T05:29:16.849Z,100327.84
2022-10-15T05:31:43.102Z,100328.69
2022-10-15T05:34:17.365Z,100330.75
2022-10-15T05:36:49.908Z,100324.63
2022-10-15T05:39:16.324Z,100321.25
2022-10-15T05:41:44.650Z,100323.72
2022-10-15T05:44:11.078Z,100321.38
2022-10-15T05:46:37.724Z,100319.50
2022-10-15T05:49:04.391Z,100319.13
2022-10-15T05:51:40.310Z,100321.50
2022-10-15T05:54:11.233Z,100324.50
2022-10-15T05:56:37.678Z,100323.47
2022-10-15T05:59:04.145Z,100323.47
2022-10-15T06:01:30.623Z,100320.75
2022-10-15T06:03:56.863Z,100317.84
2022-10-15T06:06:25.581Z,100325.84
2022-10-15T06:08:53.083Z,100326.19
2022-10-15T06:11:21.832Z,100323.13
2022-10-15T06:13:48.121Z,100335.53
2022-10-15T06:16:19.313Z,100343.31
2022-10-15T06:18:50.394Z,100339.75
2022-10-15T06:21:16.817Z,100338.53
2022-10-15T06:23:43.637Z,100334.41
2022-10-15T06:26:10.127Z,100336.03
2022-10-15T06:28:37.870Z,100334.84
2022-10-15T06:31:05.702Z,100337.69
2022-10-15T06:33:32.824Z,100343.25
2022-10-15T06:36:08.081Z,100345.50
2022-10-15T06:38:35.206Z,100346.63
2022-10-15T06:41:06.208Z,100356.50
2022-10-15T06:43:35.236Z,100356.69
2022-10-15T06:46:04.213Z,100366.31
2022-10-15T06:48:32.006Z,100363.84
2022-10-15T06:51:00.111Z,100364.22
2022-10-15T06:53:30.065Z,100373.06
2022-10-15T06:55:57.787Z,100369.97
2022-10-15T06:58:24.277Z,100366.47
2022-10-15T07:00:50.764Z,100372.22
2022-10-15T07:03:17.079Z,100370.91
2022-10-15T07:05:43.310Z,100372.97
2022-10-15T07:08:09.795Z,100368.28
2022-10-15T07:10:36.029Z,100371.38
2022-10-15T07:13:02.375Z,100368.09
2022-10-15T07:15:28.850Z,100363.56
2022-10-15T07:17:57.196Z,100360.53
2022-10-15T07:20:24.464Z,100356.59
2022-10-15T07:22:57.232Z,100351.31
2022-10-15T07:25:25.651Z,100354.53
2022-10-15T07:27:52.536Z,100348.59
2022-10-15T07:30:19.023Z,100345.69
2022-10-15T07:32:46.495Z,100352.38
2022-10-15T07:35:13.719Z,100344.19
2022-10-15T07:37:40.348Z,100353.94
2022-10-15T07:40:07.154Z,100357.53
2022-10-15T07:42:34.258Z,100353.38
2022-10-15T07:45:00.452Z,100348.47
2022-10-15T07:47:26.802Z,100360.69
2022-10-15T07:49:53.541Z,100359.53
2022-10-15T07:52:19.882Z,100354.28
2022-10-15T07:54:46.132Z,100357.75
2022-10-15T07:57:17.416Z,100362.69
2022-10-15T07:59:44.188Z,100354.16
2022-10-15T08:02:17.591Z,100357.03
2022-10-15T08:04:45.526Z,100362.75
2022-10-15T08:07:11.824Z,100355.19
2022-10-15T08:09:38.177Z,100363.06
2022-10-15T08:12:06.162Z,100365.41
2022-10-15T08:14:33.777Z,100366.28
2022-10-15T08:17:02.301Z,100371.81
2022-10-15T08:19:28.957Z,100364.47
2022-10-15T08:21:56.120Z,100364.66
2022-10-15T08:24:22.457Z,100370.97
2022-10-15T08:26:49.037Z,100367.19
2022-10-15T08:29:15.666Z,100370.44
2022-10-15T08:31:42.473Z,100373.97
2022-10-15T08:34:08.755Z,100374.09
2022-10-15T08:36:35.715Z,100372.66
2022-10-15T08:39:02.571Z,100374.00
2022-10-15T08:41:37.500Z,100373.81
2022-10-15T08:44:05.842Z,100374.50
2022-10-15T08:46:39.976Z,100377.69
2022-10-15T08:49:20.808Z,100372.84
2022-10-15T08:51:54.068Z,100372.53
2022-10-15T08:54:20.662Z,100375.34
2022-10-15T08:56:50.492Z,100373.09
2022-10-15T08:59:36.162Z,100380.22
2022-10-15T09:02:23.234Z,100379.56
2022-10-15T09:05:22.220Z,100377.56
2022-10-15T09:07:54.822Z,100395.28
2022-10-15T09:10:38.155Z,100387.41
2022-10-15T09:13:26.282Z,100394.63
2022-10-15T09:16:08.856Z,100389.84
2022-10-15T09:18:38.093Z,100393.97
2022-10-15T09:21:05.149Z,100394.00
2022-10-15T09:23:33.082Z,100391.84
2022-10-15T09:26:08.188Z,100390.69
2022-10-15T09:28:44.154Z,100392.41
2022-10-15T09:31:15.235Z,100388.66
2022-10-15T09:33:53.804Z,100389.34
2022-10-15T09:36:42.060Z,100389.72
2022-10-15T09:39:25.731Z,100395.88
2022-10-15T09:42:30.126Z,100385.78
2022-10-15T09:45:03.612Z,100393.16
2022-10-15T09:47:32.557Z,100395.91
2022-10-15T09:50:07.256Z,100397.16
2022-10-15T09:52:52.080Z,100398.44
2022-10-15T09:55:41.972Z,100394.22
2022-10-15T09:58:15.900Z,100412.94
2022-10-15T10:00:55.198Z,100410.47
2022-10-15T10:03:23.818Z,100415.47
2022-10-15T10:05:57.917Z,100410.88
2022-10-15T10:08:28.599Z,100402.47
2022-10-15T10:11:00.871Z,100406.69
2022-10-15T10:13:29.682Z,100404.75
2022-10-15T10:16:05.492Z,100403.94
2022-10-15T10:18:32.432Z,100402.06
2022-10-15T10:21:02.080Z,100406.25
2022-10-15T10:23:34.108Z,100405.41
2022-10-15T10:26:03.839Z,100402.88
2022-10-15T10:29:00.224Z,100410.91
2022-10-15T10:31:39.496Z,100407.97
2022-10-15T10:34:06.660Z,100407.09
2022-10-15T10:36:36.471Z,100409.66
2022-10-15T10:39:13.905Z,100402.47
2022-10-15T10:42:04.625Z,100412.38
2022-10-15T10:44:34.423Z,100414.03
2022-10-15T10:47:02.979Z,100412.16
2022-10-15T10:49:32.216Z,100418.59
2022-10-15T10:51:59.735Z,100418.78
2022-10-15T10:54:28.506Z,100420.03
2022-10-15T10:56:56.156Z,100412.44
2022-10-15T10:59:53.628Z,100414.13
2022-10-15T11:02:23.189Z,100410.13
2022-10-15T11:04:49.491Z,100401.47
2022-10-15T11:07:28.438Z,100405.72
2022-10-15T11:10:19.338Z,100397.31
2022-10-15T11:15:56.420Z,100389.56
2022-10-15T11:18:52.557Z,100395.91
2022-10-15T11:21:37.249Z,100394.25
2022-10-15T11:24:33.504Z,100391.13
2022-10-15T11:27:33.786Z,100384.38
2022-10-15T11:30:08.413Z,100377.63
2022-10-15T11:33:08.182Z,100378.25
2022-10-15T11:35:59.787Z,100386.91
2022-10-15T11:38:43.251Z,100383.50
2022-10-15T11:41:29.952Z,100385.41
2022-10-15T11:44:33.813Z,100380.97
2022-10-15T11:47:10.482Z,100379.69
2022-10-15T11:50:07.762Z,100384.09
2022-10-15T11:53:10.310Z,100389.38
2022-10-15T11:56:05.688Z,100386.66
2022-10-15T11:58:37.311Z,100392.38
2022-10-15T12:01:25.823Z,100388.56
2022-10-15T12:03:56.227Z,100388.94
2022-10-15T12:06:27.844Z,100380.09
2022-10-15T12:08:57.239Z,100399.56
2022-10-15T12:11:49.308Z,100401.06
2022-10-15T12:14:21.592Z,100402.53
2022-10-15T12:16:56.018Z,100403.38
2022-10-15T12:19:40.244Z,100400.41
2022-10-15T12:22:12.440Z,100402.53
2022-10-15T12:24:46.740Z,100401.69
2022-10-15T12:27:19.072Z,100397.84
2022-10-15T12:29:59.067Z,100396.78
2022-10-15T12:32:28.186Z,100396.53
2022-10-15T12:34:56.728Z,100391.88
2022-10-15T12:37:26.938Z,100391.44
2022-10-15T12:39:56.724Z,100388.66
2022-10-15T12:42:33.187Z,100384.47
2022-10-15T12:45:05.758Z,100385.31
2022-10-15T12:47:55.591Z,100382.34
2022-10-15T12:50:25.481Z,100381.72
2022-10-15T12:52:56.429Z,100376.69
2022-10-15T12:55:35.527Z,100374.78
2022-10-15T12:58:04.787Z,100370.56
2022-10-15T13:00:33.022Z,100378.28
2022-10-15T13:03:14.773Z,100376.50
2022-10-15T13:05:42.261Z,100378.06
2022-10-15T13:08:15.906Z,100373.25
2022-10-15T13:10:56.663Z,100383.41
2022-10-15T13:13:27.086Z,100377.72
2022-10-15T13:15:58.454Z,100382.81
2022-10-15T13:18:25.994Z,100385.53
2022-10-15T13:20:55.644Z,100384.09
2022-10-15T13:23:31.445Z,100372.88
2022-10-15T13:26:26.666Z,100374.59
2022-10-15T13:28:56.691Z,100372.50
2022-10-15T13:31:30.166Z,100375.91
2022-10-15T13:34:13.481Z,100366.63
2022-10-15T13:36:40.322Z,100375.47
2022-10-15T13:39:21.033Z,100376.31
2022-10-15T13:41:49.497Z,100368.50
2022-10-15T13:44:23.808Z,100373.38
2022-10-15T13:46:50.626Z,100364.94
2022-10-15T13:49:19.115Z,100375.28
2022-10-15T13:51:50.023Z,100373.78
2022-10-15T13:54:20.921Z,100369.16
2022-10-15T13:56:59.572Z,100378.00
2022-10-15T13:59:28.625Z,100375.06
2022-10-15T14:02:03.649Z,100385.00
2022-10-15T14:04:32.435Z,100385.41
2022-10-15T14:09:35.480Z,100385.84
2022-10-15T14:12:05.180Z,100374.22
2022-10-15T14:14:34.451Z,100380.34
2022-10-15T14:17:05.277Z,100389.22
2022-10-15T14:19:33.964Z,100379.69
2022-10-15T14:22:00.918Z,100376.31
2022-10-15T14:24:36.754Z,100385.84
2022-10-15T14:27:14.099Z,100375.06
2022-10-15T14:29:51.867Z,100379.28
2022-10-15T14:32:31.179Z,100377.41
2022-10-15T14:34:59.301Z,100383.94
2022-10-15T14:37:40.599Z,100383.53
2022-10-15T14:40:12.661Z,100381.84
2022-10-15T14:42:46.705Z,100381.84
2022-10-15T14:45:23.933Z,100382.69
2022-10-15T14:47:54.341Z,100379.94
2022-10-15T14:50:24.455Z,100385.91
2022-10-15T14:52:53.865Z,100385.91
2022-10-15T14:55:23.621Z,100382.31
2022-10-15T14:57:51.231Z,100386.50
2022-10-15T15:00:20.494Z,100396.19
2022-10-15T15:02:47.738Z,100391.97
2022-10-15T15:05:13.966Z,100390.50
2022-10-15T15:07:40.402Z,100388.59
2022-10-15T15:10:08.945Z,100394.31
2022-10-15T15:12:38.119Z,100396.88
2022-10-15T15:15:13.409Z,100409.28
2022-10-15T15:17:39.916Z,100412.22
2022-10-15T15:20:06.772Z,100418.13
2022-10-15T15:22:34.743Z,100418.56
2022-10-15T15:25:06.167Z,100419.81
2022-10-15T15:27:36.652Z,100424.47
2022-10-15T15:30:08.095Z,100431.19
2022-10-15T15:32:34.805Z,100420.66
2022-10-15T15:35:01.077Z,100424.84
2022-10-15T15:37:29.462Z,100429.28
2022-10-15T15:39:57.467Z,100428.63
2022-10-15T15:42:25.174Z,100437.25
2022-10-15T15:44:51.768Z,100432.38
2022-10-15T15:47:18.351Z,100437.44
2022-10-15T15:49:44.622Z,100437.84
2022-10-15T15:52:13.290Z,100439.50
2022-10-15T15:54:42.735Z,100435.69
2022-10-15T15:57:09.416Z,100439.28
2022-10-15T15:59:36.128Z,100439.28
2022-10-15T16:02:03.074Z,100423.44
2022-10-15T16:04:29.590Z,100437.34
2022-10-15T16:06:56.337Z,100447.03
2022-10-15T16:09:22.999Z,100448.28
2022-10-15T16:11:50.441Z,100458.63
2022-10-15T16:14:16.676Z,100458.00
2022-10-15T16:16:43.250Z,100452.06
2022-10-15T16:19:12.001Z,100447.63
2022-10-15T16:21:38.490Z,100456.91
2022-10-15T16:24:05.230Z,100464.69
2022-10-15T16:26:32.317Z,100460.63
2022-10-15T16:28:58.733Z,100458.13
2022-10-15T16:31:31.772Z,100463.56
2022-10-15T16:33:58.583Z,100463.31
2022-10-15T16:36:25.355Z,100470.09
2022-10-15T16:38:52.441Z,100467.97
2022-10-15T16:41:18.946Z,100473.03
2022-10-15T16:43:46.773Z,100470.28
2022-10-15T16:46:15.247Z,100476.56
2022-10-15T16:48:41.684Z,100480.81
2022-10-15T16:51:12.062Z,100480.38
2022-10-15T16:53:40.413Z,100486.25
2022-10-15T16:56:21.889Z,100488.56
2022-10-15T16:58:49.345Z,100489.88
2022-10-15T17:01:19.721Z,100489.88
2022-10-15T17:03:46.929Z,100490.06
2022-10-15T17:06:17.276Z,100485.19
2022-10-15T17:08:49.290Z,100490.66
2022-10-15T17:11:21.033Z,100490.03
2022-10-15T17:13:49.738Z,100494.63
2022-10-15T17:16:22.516Z,100493.06
2022-10-15T17:21:27.101Z,100498.50
2022-10-15T17:23:56.204Z,100501.97
2022-10-15T17:26:25.723Z,100498.59
2022-10-15T17:28:53.082Z,100513.06
2022-10-15T17:31:24.628Z,100505.19
2022-10-15T17:33:58.167Z,100524.78
2022-10-15T17:36:26.184Z,100518.66
2022-10-15T17:38:55.413Z,100523.50
2022-10-15T17:41:24.763Z,100521.13
2022-10-15T17:43:51.475Z,100518.59
2022-10-15T17:46:20.518Z,100524.00
2022-10-15T17:48:49.814Z,100535.59
2022-10-15T17:51:18.541Z,100528.19
2022-10-15T17:53:45.447Z,100538.06
2022-10-15T17:56:14.891Z,100538.94
2022-10-15T17:58:42.499Z,100551.16
2022-10-15T18:01:58.299Z,100551.44
2022-10-15T18:04:24.685Z,100554.63
2022-10-15T18:06:51.537Z,100544.72
2022-10-15T18:09:24.093Z,100553.84
2022-10-15T18:11:50.617Z,100550.72
2022-10-15T18:14:16.927Z,100556.84
2022-10-15T18:16:43.694Z,100561.53
2022-10-15T18:19:10.249Z,100559.84
2022-10-15T18:21:36.789Z,100556.44
2022-10-15T18:24:03.672Z,100551.38
2022-10-15T18:26:33.201Z,100560.69
2022-10-15T18:29:00.024Z,100564.25
2022-10-15T18:31:26.997Z,100567.66
2022-10-15T18:33:55.686Z,100567.66
2022-10-15T18:36:25.296Z,100561.72
2022-10-15T18:38:53.241Z,100565.69
2022-10-15T18:41:22.626Z,100565.25
2022-10-15T18:44:01.171Z,100561.00
2022-10-15T18:46:34.324Z,100571.09
2022-10-15T18:49:01.661Z,100570.06
2022-10-15T18:51:30.648Z,100574.50
2022-10-15T18:53:58.956Z,100569.41
2022-10-15T18:56:25.864Z,100580.81
2022-10-15T18:58:52.226Z,100573.66
2022-10-15T19:01:23.821Z,100587.59
2022-10-15T19:03:51.992Z,100583.34
2022-10-15T19:06:20.903Z,100573.66
2022-10-15T19:08:47.951Z,100578.09
2022-10-15T19:11:15.267Z,100578.53
2022-10-15T19:13:41.689Z,100582.50
2022-10-15T19:16:09.335Z,100577.44
2022-10-15T19:18:38.754Z,100582.50
2022-10-15T19:21:06.888Z,100583.94
2022-10-15T19:23:33.919Z,100583.28
2022-10-15T19:26:03.397Z,100584.53
2022-10-15T19:28:30.116Z,100592.53
2022-10-15T19:31:00.838Z,100589.34
2022-10-15T19:33:29.360Z,100590.31
2022-10-15T19:35:56.152Z,100599.75
2022-10-15T19:38:23.797Z,100591.94
2022-10-15T19:40:50.927Z,100601.09
2022-10-15T19:43:18.706Z,100605.72
2022-10-15T19:45:46.445Z,100606.50
2022-10-15T19:48:17.311Z,100604.63
2022-10-15T19:50:46.254Z,100607.28
2022-10-15T19:53:15.774Z,100609.91
2022-10-15T19:55:43.736Z,100614.25
2022-10-15T19:58:10.141Z,100612.75
2022-10-15T20:00:36.682Z,100614.19
2022-10-15T20:03:03.204Z,100614.56
2022-10-15T20:05:29.951Z,100610.13
2022-10-15T20:07:56.574Z,100613.53
2022-10-15T20:10:25.999Z,100612.22
2022-10-15T20:12:53.340Z,100615.97
2022-10-15T20:15:22.414Z,100615.69
2022-10-15T20:17:48.809Z,100617.31
2022-10-15T20:20:15.410Z,100617.22
2022-10-15T20:22:41.825Z,100618.63
2022-10-15T20:25:11.198Z,100617.03
2022-10-15T20:27:37.463Z,100625.97
2022-10-15T20:30:04.673Z,100624.47
2022-10-15T20:32:35.616Z,100619.75
2022-10-15T20:35:04.256Z,100628.31
2022-10-15T20:37:31.563Z,100637.72
2022-10-15T20:39:58.935Z,100620.84
2022-10-15T20:42:25.489Z,100631.78
2022-10-15T20:44:53.479Z,100629.25
2022-10-15T20:47:20.294Z,100637.63
2022-10-15T20:49:51.319Z,100633.75
2022-10-15T20:52:17.581Z,100620.94
2022-10-15T20:54:44.264Z,100623.47
2022-10-15T20:57:12.231Z,100638.47
2022-10-15T20:59:41.446Z,100641.00
2022-10-15T21:02:09.117Z,100641.84
2022-10-15T21:04:35.763Z,100653.81
2022-10-15T21:07:01.894Z,100651.56
2022-10-15T21:09:29.891Z,100657.59
2022-10-15T21:11:56.217Z,100649.38
2022-10-15T21:14:24.124Z,100638.53
2022-10-15T21:16:55.454Z,100657.00
2022-10-15T21:19:23.130Z,100648.69
2022-10-15T21:21:50.766Z,100642.09
2022-10-15T21:24:17.285Z,100647.72
2022-10-15T21:26:43.448Z,100643.19
2022-10-15T21:29:38.647Z,100649.38
2022-10-15T21:32:52.162Z,100644.16
2022-10-15T21:35:38.203Z,100655.44
2022-10-15T21:38:12.215Z,100652.91
2022-10-15T21:40:38.756Z,100666.53
2022-10-15T21:43:04.860Z,100683.47
2022-10-15T21:45:31.217Z,100692.34
2022-10-15T21:47:57.433Z,100694.91
2022-10-15T21:50:24.243Z,100690.31
2022-10-15T21:52:50.428Z,100693.81
2022-10-15T21:55:16.853Z,100708.75
2022-10-15T21:57:43.272Z,100706.31
2022-10-15T22:00:13.502Z,100712.75
2022-10-15T22:02:42.555Z,100704.88
2022-10-15T22:05:09.098Z,100710.81
2022-10-15T22:07:38.431Z,100703.81
2022-10-15T22:10:06.887Z,100710.13
2022-10-15T22:12:33.002Z,100706.34
2022-10-15T22:14:59.374Z,100696.81
2022-10-15T22:17:25.638Z,100703.41
2022-10-15T22:19:51.993Z,100706.25
2022-10-15T22:22:18.157Z,100708.13
2022-10-15T22:24:46.802Z,100715.00
2022-10-15T22:27:13.059Z,100712.75
2022-10-15T22:29:40.417Z,100711.34
2022-10-15T22:32:06.725Z,100711.53
2022-10-15T22:34:33.125Z,100716.25
2022-10-15T22:36:59.285Z,100722.56
2022-10-15T22:39:26.997Z,100722.03
2022-10-15T22:41:53.205Z,100727.13
2022-10-15T22:44:20.368Z,100724.88
2022-10-15T22:46:48.722Z,100724.88
2022-10-15T22:49:17.417Z,100721.66
2022-10-15T22:51:43.621Z,100723.53
2022-10-15T22:54:10.256Z,100723.06
2022-10-15T22:56:36.980Z,100725.84
2022-10-15T22:59:04.512Z,100723.31
2022-10-15T23:01:32.872Z,100728.47
2022-10-15T23:04:02.708Z,100722.91
2022-10-15T23:06:30.118Z,100722.06
2022-10-15T23:08:57.945Z,100721.88
2022-10-15T23:11:42.186Z,100732.81
2022-10-15T23:14:14.792Z,100724.88
2022-10-15T23:16:43.643Z,100725.19
2022-10-15T23:19:16.922Z,100722.16
2022-10-15T23:21:44.484Z,100719.44
2022-10-15T23:24:11.276Z,100727.69
2022-10-15T23:26:38.939Z,100726.72
2022-10-15T23:29:10.196Z,100727.44
2022-10-15T23:31:36.371Z,100734.97
2022-10-15T23:34:04.625Z,100731.94
2022-10-15T23:36:32.033Z,100734.66
2022-10-15T23:39:04.113Z,100732.47
2022-10-15T23:41:30.882Z,100728.41
2022-10-15T23:43:58.011Z,100722.81
2022-10-15T23:46:24.241Z,100729.63
2022-10-15T23:48:51.838Z,100737.44
2022-10-15T23:51:21.248Z,100730.91
2022-10-15T23:53:48.664Z,100740.41
2022-10-15T23:56:15.303Z,100741.28
2022-10-15T23:58:42.359Z,100742.59
